createdAt,value
2019-02-04T00:03:20.897Z,25.50
2019-02-04T00:07:28.748Z,26.20
2019-02-04T00:11:36.729Z,25.93
2019-02-04T00:15:44.917Z,31.37
2019-02-04T00:19:52.936Z,27.97
2019-02-04T00:24:00.622Z,24.83
2019-02-04T00:28:08.373Z,31.97
2019-02-04T00:32:16.205Z,32.87
2019-02-04T00:36:24.552Z,27.73
2019-02-04T00:40:32.307Z,31.13
2019-02-04T00:44:40.266Z,23.07
2019-02-04T00:48:47.808Z,27.93
2019-02-04T00:52:55.972Z,21.73
2019-02-04T00:57:04.299Z,19.97
2019-02-04T01:01:12.053Z,19.33
2019-02-04T01:05:20.828Z,19.60
2019-02-04T01:09:28.782Z,22.40
2019-02-04T01:13:36.686Z,18.53
2019-02-04T01:17:45.366Z,16.90
2019-02-04T01:21:54.262Z,19.17
2019-02-04T01:26:02.003Z,27.90
2019-02-04T01:30:10.355Z,19.67
2019-02-04T01:34:18.278Z,15.37
2019-02-04T01:38:26.180Z,11.57
2019-02-04T01:42:34.174Z,17.30
2019-02-04T01:46:41.886Z,19.73
2019-02-04T01:50:49.728Z,19.13
2019-02-04T01:54:57.418Z,15.27
2019-02-04T01:59:05.336Z,17.73
2019-02-04T02:03:13.235Z,20.73
2019-02-04T02:07:21.156Z,21.50
2019-02-04T02:11:29.436Z,19.83
2019-02-04T02:15:37.344Z,21.10
2019-02-04T02:19:45.251Z,18.77
2019-02-04T02:23:53.225Z,17.07
2019-02-04T02:28:00.951Z,18.03
2019-02-04T02:32:08.844Z,17.53
2019-02-04T02:36:16.754Z,15.13
2019-02-04T02:40:27.275Z,13.77
2019-02-04T02:44:34.772Z,13.90
2019-02-04T02:48:42.456Z,16.73
2019-02-04T02:52:50.175Z,14.87
2019-02-04T02:56:58.070Z,14.30
2019-02-04T03:01:06.167Z,14.20
2019-02-04T03:05:15.176Z,14.10
2019-02-04T03:09:22.664Z,13.67
2019-02-04T03:13:30.580Z,17.30
2019-02-04T03:17:51.113Z,13.90
2019-02-04T03:21:49.049Z,18.63
2019-02-04T03:25:57.149Z,14.73
2019-02-04T03:30:07.279Z,19.67
2019-02-04T03:34:15.187Z,17.23
2019-02-04T03:38:23.132Z,15.53
2019-02-04T03:42:31.026Z,19.57
2019-02-04T03:46:39.029Z,20.30
2019-02-04T03:50:46.960Z,22.30
2019-02-04T03:54:54.660Z,22.40
2019-02-04T03:59:04.538Z,19.37
2019-02-04T04:03:12.327Z,27.73
2019-02-04T04:07:20.105Z,37.90
2019-02-04T04:11:28.038Z,29.20
2019-02-04T04:15:35.543Z,29.50
2019-02-04T04:19:43.326Z,27.57
2019-02-04T04:23:51.034Z,31.57
2019-02-04T04:27:58.948Z,27.57
2019-02-04T04:32:06.455Z,30.83
2019-02-04T04:36:14.388Z,37.40
2019-02-04T04:40:22.193Z,38.50
2019-02-04T04:44:30.113Z,44.00
2019-02-04T04:48:37.639Z,46.17
2019-02-04T04:52:45.557Z,44.17
2019-02-04T04:56:53.472Z,52.17
2019-02-04T05:01:01.186Z,38.40
2019-02-04T05:05:10.039Z,35.80
2019-02-04T05:09:17.750Z,29.87
2019-02-04T05:13:25.245Z,27.17
2019-02-04T05:17:32.941Z,27.33
2019-02-04T05:21:40.686Z,30.80
2019-02-04T05:25:48.598Z,23.10
2019-02-04T05:29:56.512Z,24.47
2019-02-04T05:34:04.576Z,27.73
2019-02-04T05:38:12.478Z,23.37
2019-02-04T05:42:20.491Z,50.37
2019-02-04T05:46:29.422Z,34.23
2019-02-04T05:50:37.321Z,25.67
2019-02-04T05:54:45.090Z,32.27
2019-02-04T05:58:52.796Z,53.00
2019-02-04T06:03:00.489Z,30.37
2019-02-04T06:07:08.215Z,19.70
2019-02-04T06:11:15.931Z,27.73
2019-02-04T06:15:23.916Z,26.70
2019-02-04T06:19:31.619Z,19.37
2019-02-04T06:23:39.544Z,18.80
2019-02-04T06:27:47.444Z,24.03
2019-02-04T06:31:55.186Z,21.33
2019-02-04T06:36:03.112Z,25.07
2019-02-04T06:40:12.252Z,25.80
2019-02-04T06:44:19.981Z,25.67
2019-02-04T06:48:27.801Z,25.17
2019-02-04T06:52:35.718Z,28.13
2019-02-04T06:56:43.642Z,39.03
2019-02-04T07:00:51.649Z,54.07
2019-02-04T07:04:59.577Z,46.43
2019-02-04T07:09:11.279Z,47.03
2019-02-04T07:13:18.977Z,32.53
2019-02-04T07:17:26.694Z,37.33
2019-02-04T07:21:34.618Z,43.10
2019-02-04T07:25:42.542Z,36.07
2019-02-04T07:29:50.112Z,36.10
2019-02-04T07:33:57.831Z,43.83
2019-02-04T07:38:05.670Z,53.23
2019-02-04T07:42:13.639Z,42.23
2019-02-04T07:46:21.152Z,40.23
2019-02-04T07:50:29.077Z,38.43
2019-02-04T07:54:36.663Z,35.67
2019-02-04T07:58:44.176Z,34.40
2019-02-04T08:02:52.410Z,38.03
2019-02-04T08:07:00.115Z,37.47
2019-02-04T08:11:07.851Z,34.43
2019-02-04T08:15:18.328Z,31.00
2019-02-04T08:19:26.253Z,36.17
2019-02-04T08:23:34.646Z,33.97
2019-02-04T08:27:42.679Z,40.43
2019-02-04T08:31:50.926Z,37.23
2019-02-04T08:35:58.538Z,36.10
2019-02-04T08:40:07.265Z,40.03
2019-02-04T08:44:14.785Z,26.43
2019-02-04T08:48:22.723Z,29.77
2019-02-04T08:52:30.439Z,36.07
2019-02-04T08:56:38.349Z,34.90
2019-02-04T09:00:46.280Z,54.70
2019-02-04T09:04:53.801Z,55.00
2019-02-04T09:09:01.519Z,35.13
2019-02-04T09:13:10.386Z,23.83
2019-02-04T09:17:18.789Z,18.13
2019-02-04T09:21:26.682Z,20.40
2019-02-04T09:25:34.609Z,27.43
2019-02-04T09:29:42.328Z,24.83
2019-02-04T09:33:50.247Z,23.20
2019-02-04T09:37:58.190Z,23.30
2019-02-04T09:42:06.590Z,15.10
2019-02-04T09:46:14.520Z,23.30
2019-02-04T09:50:23.204Z,14.70
2019-02-04T09:54:30.918Z,18.73
2019-02-04T09:58:38.438Z,17.87
2019-02-04T10:02:46.487Z,26.37
2019-02-04T10:06:55.441Z,16.73
2019-02-04T10:11:03.019Z,12.57
2019-02-04T10:15:13.639Z,18.67
2019-02-04T10:19:21.658Z,14.60
2019-02-04T10:23:29.413Z,18.30
2019-02-04T10:27:37.445Z,18.53
2019-02-04T10:31:45.428Z,23.43
2019-02-04T10:35:53.552Z,26.10
2019-02-04T10:40:01.012Z,26.53
2019-02-04T10:44:08.734Z,16.93
2019-02-04T10:48:16.331Z,19.63
2019-02-04T10:52:24.232Z,20.33
2019-02-04T10:56:32.259Z,21.97
2019-02-04T11:00:41.053Z,24.85
2019-02-04T11:04:48.814Z,19.47
2019-02-04T11:08:56.835Z,12.45
2019-02-04T11:13:09.535Z,22.95
2019-02-04T11:17:17.568Z,14.83
2019-02-04T11:21:25.152Z,16.30
2019-02-04T11:25:33.004Z,22.35
2019-02-04T11:29:41.321Z,21.93
2019-02-04T11:33:49.297Z,25.30
2019-02-04T11:37:57.409Z,23.45
2019-02-04T11:42:05.711Z,21.85
2019-02-04T11:46:13.579Z,19.65
2019-02-04T11:50:21.345Z,23.80
2019-02-04T11:54:29.256Z,29.70
2019-02-04T11:58:37.457Z,13.03
2019-02-04T12:02:45.439Z,27.77
2019-02-04T12:06:53.200Z,24.43
2019-02-04T12:11:14.715Z,25.53
2019-02-04T12:15:23.669Z,18.90
2019-02-04T12:19:31.684Z,22.82
2019-02-04T12:23:39.488Z,28.27
2019-02-04T12:27:47.204Z,31.30
2019-02-04T12:31:55.393Z,22.32
2019-02-04T12:36:03.297Z,22.62
2019-02-04T12:40:12.213Z,24.43
2019-02-04T12:44:20.131Z,23.30
2019-02-04T12:48:28.260Z,39.35
2019-02-04T12:52:36.545Z,17.87
2019-02-04T12:56:44.333Z,23.80
2019-02-04T13:00:52.127Z,21.13
2019-02-04T13:04:59.775Z,21.07
2019-02-04T13:09:09.889Z,26.13
2019-02-04T13:13:20.625Z,42.20
2019-02-04T13:17:28.578Z,25.50
2019-02-04T13:21:45.066Z,54.37
2019-02-04T13:25:45.513Z,38.63
2019-02-04T13:29:53.033Z,37.97
2019-02-04T13:34:00.946Z,36.63
2019-02-04T13:38:08.576Z,42.17
2019-02-04T13:42:16.134Z,37.77
2019-02-04T13:46:24.276Z,26.90
2019-02-04T13:50:31.875Z,22.37
2019-02-04T13:54:39.519Z,36.23
2019-02-04T13:58:47.417Z,40.23
2019-02-04T14:02:59.364Z,25.97
2019-02-04T14:07:05.432Z,21.67
2019-02-04T14:11:13.341Z,27.77
2019-02-04T14:15:21.601Z,25.20
2019-02-04T14:19:29.112Z,26.50
2019-02-04T14:23:36.867Z,23.00
2019-02-04T14:27:47.401Z,28.57
2019-02-04T14:31:55.369Z,20.53
2019-02-04T14:36:03.077Z,22.37
2019-02-04T14:40:18.948Z,21.33
2019-02-04T14:44:45.808Z,29.70
2019-02-04T14:49:32.853Z,25.50
2019-02-04T14:54:22.043Z,27.43
2019-02-04T14:59:03.003Z,29.23
2019-02-04T15:03:34.430Z,24.73
2019-02-04T15:08:33.405Z,31.07
2019-02-04T15:13:09.088Z,37.90
2019-02-04T15:18:05.098Z,39.77
2019-02-04T15:23:08.541Z,48.87
2019-02-04T15:27:58.758Z,51.77
2019-02-04T15:32:41.574Z,38.43
2019-02-04T15:37:35.542Z,29.57
2019-02-04T15:42:08.991Z,36.93
2019-02-04T15:47:09.706Z,35.03
2019-02-04T15:51:28.754Z,132.47
2019-02-04T15:55:36.374Z,78.50
2019-02-04T15:59:44.297Z,45.90
2019-02-04T16:03:52.222Z,44.77
2019-02-04T16:08:00.285Z,60.90
2019-02-04T16:12:08.197Z,96.37
2019-02-04T16:16:16.308Z,63.27
2019-02-04T16:20:25.322Z,55.87
2019-02-04T16:24:34.005Z,87.93
2019-02-04T16:28:42.879Z,31.13
2019-02-04T16:32:52.960Z,37.40
2019-02-04T16:37:00.375Z,36.00
2019-02-04T16:41:08.102Z,37.40
2019-02-04T16:45:17.693Z,29.33
2019-02-04T16:49:25.720Z,24.03
2019-02-04T16:53:33.664Z,29.10
2019-02-04T16:57:41.486Z,26.47
2019-02-04T17:01:49.405Z,26.97
2019-02-04T17:05:56.941Z,24.70
2019-02-04T17:10:06.680Z,24.33
2019-02-04T17:14:14.275Z,28.43
2019-02-04T17:18:22.016Z,20.77
2019-02-04T17:22:29.776Z,58.37
2019-02-04T17:26:37.728Z,57.33
2019-02-04T17:30:45.455Z,63.90
2019-02-04T17:34:54.105Z,70.83
2019-02-04T17:39:02.049Z,125.97
2019-02-04T17:43:11.513Z,53.40
2019-02-04T17:47:19.246Z,74.20
2019-02-04T17:51:31.826Z,43.17
2019-02-04T17:55:38.196Z,45.07
2019-02-04T17:59:47.280Z,49.23
2019-02-04T18:03:56.628Z,49.97
2019-02-04T18:08:05.927Z,66.93
2019-02-04T18:12:13.873Z,41.83
2019-02-04T18:16:22.113Z,21.47
2019-02-04T18:20:29.888Z,20.23
2019-02-04T18:24:39.004Z,20.97
2019-02-04T18:28:47.910Z,22.83
2019-02-04T18:32:56.005Z,27.43
2019-02-04T18:37:04.892Z,36.57
2019-02-04T18:41:12.811Z,67.60
2019-02-04T18:45:23.316Z,53.97
2019-02-04T18:49:31.366Z,39.43
2019-02-04T18:53:39.826Z,39.43
2019-02-04T18:57:48.083Z,45.80
2019-02-04T19:01:55.822Z,41.93
2019-02-04T19:06:06.431Z,50.73
2019-02-04T19:10:16.767Z,63.53
2019-02-04T19:14:25.439Z,57.27
2019-02-04T19:18:33.444Z,53.60
2019-02-04T19:22:43.715Z,61.53
2019-02-04T19:26:54.005Z,45.93
2019-02-04T19:31:05.988Z,44.87
2019-02-04T19:35:13.951Z,51.07
2019-02-04T19:39:21.897Z,41.03
2019-02-04T19:43:29.744Z,38.40
2019-02-04T19:47:37.488Z,37.07
2019-02-04T19:51:45.518Z,44.67
2019-02-04T19:55:53.157Z,46.40
2019-02-04T20:00:02.848Z,49.27
2019-02-04T20:04:11.248Z,57.47
2019-02-04T20:08:19.102Z,70.53
2019-02-04T20:12:27.351Z,22.40
2019-02-04T20:16:36.027Z,20.27
2019-02-04T20:20:43.966Z,16.17
2019-02-04T20:24:51.490Z,12.60
2019-02-04T20:28:59.722Z,14.87
2019-02-04T20:33:10.876Z,13.40
2019-02-04T20:37:18.926Z,13.80
2019-02-04T20:41:26.894Z,15.77
2019-02-04T20:45:35.043Z,52.27
2019-02-04T20:49:42.800Z,59.23
2019-02-04T20:53:50.824Z,57.43
2019-02-04T20:57:58.492Z,55.90
2019-02-04T21:02:06.300Z,62.37
2019-02-04T21:06:14.038Z,78.43
2019-02-04T21:10:22.614Z,81.90
2019-02-04T21:14:30.346Z,77.07
2019-02-04T21:18:38.289Z,58.90
2019-02-04T21:22:46.177Z,56.67
2019-02-04T21:26:54.105Z,63.53
2019-02-04T21:31:02.052Z,66.07
2019-02-04T21:35:10.324Z,149.43
2019-02-04T21:39:17.857Z,131.73
2019-02-04T21:43:25.786Z,74.90
2019-02-04T21:47:33.708Z,72.03
2019-02-04T21:51:41.219Z,52.93
2019-02-04T21:55:49.144Z,56.27
2019-02-04T21:59:57.053Z,49.73
2019-02-04T22:04:05.269Z,43.40
2019-02-04T22:08:13.257Z,32.60
2019-02-04T22:12:21.455Z,29.13
2019-02-04T22:16:29.173Z,30.77
2019-02-04T22:20:37.381Z,32.63
2019-02-04T22:24:45.895Z,30.50
2019-02-04T22:28:53.810Z,29.13
2019-02-04T22:33:01.859Z,32.63
2019-02-04T22:37:10.953Z,36.80
2019-02-04T22:41:18.889Z,35.27
2019-02-04T22:45:27.382Z,39.90
2019-02-04T22:49:35.265Z,42.57
2019-02-04T22:53:43.172Z,42.07
2019-02-04T22:57:51.182Z,36.27
2019-02-04T23:01:59.779Z,43.67
2019-02-04T23:06:07.577Z,42.30
2019-02-04T23:10:15.626Z,44.63
2019-02-04T23:14:23.546Z,40.10
2019-02-04T23:18:31.459Z,33.00
2019-02-04T23:22:39.068Z,37.37
2019-02-04T23:26:46.873Z,39.50
2019-02-04T23:30:54.879Z,52.83
2019-02-04T23:35:02.380Z,44.10
2019-02-04T23:39:11.414Z,52.23
2019-02-04T23:43:19.093Z,52.43
2019-02-04T23:47:26.801Z,53.43
2019-02-04T23:51:34.797Z,60.10
2019-02-04T23:55:42.504Z,51.23
2019-02-04T23:59:50.408Z,55.53
